Time;durP1;ratioP1;P1;durP2;ratioP2;P2;SDS_P1;SDS_P2;PMS_P1;PMS_P2;Temp;Humidity;BMP_temperature;BMP_pressure;BME280_temperature;BME280_humidity;BME280_pressure;Samples;Min_cycle;Max_cycle;Signal;HPM_P1;HPM_P2
2023/08/06 00:00:24;;;;;;;7.65;5.55;;;;;;;;;;5039836;28;20815;-82
2023/08/06 00:02:49;;;;;;;8.65;5.97;;;;;;;;;;5037000;28;20032;-82
2023/08/06 00:05:20;;;;;;;6.78;5.45;;;;;;;;;;5061024;28;20044;-82
2023/08/06 00:07:49;;;;;;;8.05;5.78;;;;;;;;;;5045620;28;20407;-82
2023/08/06 00:10:15;;;;;;;7.95;5.82;;;;;;;;;;5036382;28;20036;-81
2023/08/06 00:12:40;;;;;;;10.88;5.88;;;;;;;;;;5038916;28;20037;-82
2023/08/06 00:15:06;;;;;;;7.13;5.47;;;;;;;;;;5040771;28;20115;-82
2023/08/06 00:17:32;;;;;;;7.63;6.15;;;;;;;;;;5035821;28;20126;-82
2023/08/06 00:19:57;;;;;;;9.40;5.88;;;;;;;;;;5051394;28;20093;-82
2023/08/06 00:22:22;;;;;;;6.85;5.63;;;;;;;;;;5043570;28;20033;-82
2023/08/06 00:24:52;;;;;;;7.18;5.53;;;;;;;;;;5044713;28;20044;-82
2023/08/06 00:27:17;;;;;;;6.45;5.53;;;;;;;;;;5055483;28;20392;-82
2023/08/06 00:29:42;;;;;;;8.52;6.40;;;;;;;;;;5044291;28;20040;-82
2023/08/06 00:32:08;;;;;;;8.95;6.00;;;;;;;;;;5047263;28;20069;-82
2023/08/06 00:34:33;;;;;;;6.72;5.97;;;;;;;;;;5036077;28;20035;-82
2023/08/06 00:36:59;;;;;;;9.35;5.90;;;;;;;;;;5044498;28;20037;-82
2023/08/06 00:39:24;;;;;;;9.48;6.10;;;;;;;;;;5041746;28;20521;-82
2023/08/06 00:41:55;;;;;;;7.85;6.22;;;;;;;;;;5037176;28;20044;-82
2023/08/06 00:44:20;;;;;;;8.85;5.97;;;;;;;;;;5038387;28;20045;-82
2023/08/06 00:46:45;;;;;;;7.72;6.15;;;;;;;;;;5043455;28;20040;-82
2023/08/06 00:49:15;;;;;;;8.32;6.28;;;;;;;;;;5036038;28;20671;-81
2023/08/06 00:51:42;;;;;;;7.20;5.93;;;;;;;;;;5024893;28;20145;-82
2023/08/06 00:54:08;;;;;;;7.43;5.80;;;;;;;;;;5042168;28;20029;-82
2023/08/06 00:56:37;;;;;;;8.75;6.07;;;;;;;;;;5053129;28;20136;-82
2023/08/06 00:59:04;;;;;;;7.80;6.25;;;;;;;;;;5054461;28;21191;-81
2023/08/06 01:01:30;;;;;;;8.38;5.68;;;;;;;;;;5043037;28;20496;-82
2023/08/06 01:03:56;;;;;;;8.02;5.38;;;;;;;;;;5043658;28;20041;-82
2023/08/06 01:06:37;;;;;;;7.32;5.93;;;;;;;;;;5059321;28;20047;-82
2023/08/06 01:09:12;;;;;;;9.98;5.78;;;;;;;;;;5054442;28;20044;-82
2023/08/06 01:11:59;;;;;;;8.25;5.78;;;;;;;;;;5037229;28;20040;-82
2023/08/06 01:14:28;;;;;;;8.40;5.60;;;;;;;;;;5031543;28;20221;-82
2023/08/06 01:16:54;;;;;;;7.88;5.90;;;;;;;;;;5040588;28;20524;-82
2023/08/06 01:19:21;;;;;;;7.93;5.97;;;;;;;;;;5037529;28;20156;-82
2023/08/06 01:21:46;;;;;;;8.00;5.80;;;;;;;;;;5034486;28;20033;-82
2023/08/06 01:24:12;;;;;;;7.47;6.00;;;;;;;;;;5042542;28;20370;-82
2023/08/06 01:26:42;;;;;;;8.50;6.13;;;;;;;;;;5041285;28;20496;-82
2023/08/06 01:29:31;;;;;;;8.48;6.07;;;;;;;;;;5052038;28;20115;-82
2023/08/06 01:31:57;;;;;;;7.22;5.47;;;;;;;;;;5054732;28;20591;-82
2023/08/06 01:34:28;;;;;;;9.65;5.50;;;;;;;;;;5042945;28;20445;-81
2023/08/06 01:36:54;;;;;;;9.02;5.90;;;;;;;;;;5046317;28;20068;-81
2023/08/06 01:39:21;;;;;;;7.80;5.78;;;;;;;;;;5050123;28;20067;-82
2023/08/06 01:41:50;;;;;;;8.07;5.90;;;;;;;;;;5062975;28;20039;-82
2023/08/06 01:44:16;;;;;;;10.48;6.55;;;;;;;;;;5064064;28;20037;-81
2023/08/06 01:46:41;;;;;;;7.95;5.97;;;;;;;;;;5047270;28;20032;-82
2023/08/06 01:49:07;;;;;;;7.72;5.90;;;;;;;;;;5057348;28;20044;-82
2023/08/06 01:51:32;;;;;;;7.05;5.80;;;;;;;;;;5041253;28;20476;-81
2023/08/06 01:53:57;;;;;;;7.60;6.00;;;;;;;;;;5047124;28;20037;-81
2023/08/06 01:56:23;;;;;;;9.50;5.97;;;;;;;;;;5047647;28;20093;-81
2023/08/06 01:58:51;;;;;;;7.45;5.47;;;;;;;;;;5054575;28;20048;-81
2023/08/06 02:01:17;;;;;;;8.32;6.20;;;;;;;;;;5040776;28;20037;-81
2023/08/06 02:03:42;;;;;;;7.53;5.95;;;;;;;;;;5041971;28;20049;-82
2023/08/06 02:06:08;;;;;;;7.45;5.93;;;;;;;;;;5046266;28;20037;-82
2023/08/06 02:08:33;;;;;;;8.27;5.95;;;;;;;;;;5047720;28;20054;-82
2023/08/06 02:10:59;;;;;;;7.85;6.18;;;;;;;;;;5046255;28;20078;-82
2023/08/06 02:13:24;;;;;;;7.88;6.10;;;;;;;;;;5039008;28;20484;-82
2023/08/06 02:15:52;;;;;;;9.30;7.40;;;;;;;;;;5040641;28;20032;-82
2023/08/06 02:18:17;;;;;;;;;;;;;;;;;;5048078;28;20031;-82
2023/08/06 02:20:43;;;;;;;7.63;6.10;;;;;;;;;;5037753;28;20350;-82
2023/08/06 02:23:11;;;;;;;7.35;6.13;;;;;;;;;;5037377;28;20047;-82
2023/08/06 02:25:37;;;;;;;8.85;6.97;;;;;;;;;;5040812;28;20044;-82
2023/08/06 02:28:02;;;;;;;9.07;7.20;;;;;;;;;;5044264;28;20033;-82
2023/08/06 02:30:28;;;;;;;8.70;7.57;;;;;;;;;;5035153;28;20044;-82
2023/08/06 02:32:53;;;;;;;9.00;7.22;;;;;;;;;;5054120;28;20048;-82
2023/08/06 02:35:18;;;;;;;9.50;7.93;;;;;;;;;;5046328;28;20036;-82
2023/08/06 02:37:44;;;;;;;9.40;7.82;;;;;;;;;;5037877;28;20127;-82
2023/08/06 02:40:17;;;;;;;9.48;7.50;;;;;;;;;;5029204;28;20898;-82
2023/08/06 02:42:43;;;;;;;8.82;7.55;;;;;;;;;;5045976;28;20039;-82
2023/08/06 02:45:08;;;;;;;9.20;7.50;;;;;;;;;;5060845;28;20036;-82
2023/08/06 02:47:34;;;;;;;10.13;7.57;;;;;;;;;;5052811;28;20400;-82
2023/08/06 02:49:59;;;;;;;9.15;7.50;;;;;;;;;;5046382;28;20082;-82
2023/08/06 02:52:25;;;;;;;10.50;7.95;;;;;;;;;;5036639;28;20660;-82
2023/08/06 02:54:50;;;;;;;9.93;7.80;;;;;;;;;;5043136;28;20388;-82
2023/08/06 02:57:15;;;;;;;9.32;7.90;;;;;;;;;;5026662;28;20037;-82
2023/08/06 02:59:41;;;;;;;9.95;7.88;;;;;;;;;;5043970;28;20373;-82
2023/08/06 03:02:06;;;;;;;10.65;7.82;;;;;;;;;;5044350;28;20045;-82
2023/08/06 03:04:34;;;;;;;9.38;7.30;;;;;;;;;;5041114;28;20037;-82
2023/08/06 03:06:59;;;;;;;10.10;7.25;;;;;;;;;;5049422;28;20043;-82
2023/08/06 03:09:25;;;;;;;8.85;7.40;;;;;;;;;;5050364;28;20563;-82
2023/08/06 03:11:50;;;;;;;9.88;7.35;;;;;;;;;;5057824;28;20036;-82
2023/08/06 03:14:15;;;;;;;9.30;7.47;;;;;;;;;;5044976;28;20033;-82
2023/08/06 03:16:41;;;;;;;8.70;6.95;;;;;;;;;;5043354;28;20047;-82
2023/08/06 03:19:06;;;;;;;7.90;6.93;;;;;;;;;;5056994;28;20194;-82
2023/08/06 03:21:37;;;;;;;10.32;7.55;;;;;;;;;;5040958;28;20036;-82
2023/08/06 03:24:03;;;;;;;9.02;7.45;;;;;;;;;;5041261;28;20608;-82
2023/08/06 03:26:28;;;;;;;9.48;7.50;;;;;;;;;;5039109;28;20049;-82
2023/08/06 03:28:54;;;;;;;9.13;7.28;;;;;;;;;;5054175;28;20044;-82
2023/08/06 03:31:19;;;;;;;8.07;6.63;;;;;;;;;;5047533;28;20037;-82
2023/08/06 03:33:44;;;;;;;8.35;6.78;;;;;;;;;;5045310;28;20131;-82
2023/08/06 03:36:10;;;;;;;8.88;7.00;;;;;;;;;;5042571;28;20032;-82
2023/08/06 03:38:35;;;;;;;8.32;6.75;;;;;;;;;;5042381;28;20040;-81
2023/08/06 03:41:01;;;;;;;8.90;7.10;;;;;;;;;;5045977;28;20041;-82
2023/08/06 03:43:26;;;;;;;7.82;6.65;;;;;;;;;;5059055;28;20033;-82
2023/08/06 03:45:51;;;;;;;8.88;6.57;;;;;;;;;;5040481;28;20118;-82
2023/08/06 03:48:17;;;;;;;8.35;6.95;;;;;;;;;;5056035;28;20048;-82
2023/08/06 03:50:42;;;;;;;8.73;6.75;;;;;;;;;;5040745;28;20028;-82
2023/08/06 03:53:08;;;;;;;8.10;6.80;;;;;;;;;;5043757;28;20123;-82
2023/08/06 03:55:33;;;;;;;9.85;6.82;;;;;;;;;;5057237;28;20039;-82
2023/08/06 03:57:58;;;;;;;7.55;6.45;;;;;;;;;;5041677;28;20024;-82
2023/08/06 04:00:24;;;;;;;9.60;6.82;;;;;;;;;;5046225;28;20089;-83
2023/08/06 04:02:49;;;;;;;7.78;6.25;;;;;;;;;;5046615;28;20066;-82
2023/08/06 04:05:15;;;;;;;8.43;6.57;;;;;;;;;;5054087;28;20047;-82
2023/08/06 04:07:41;;;;;;;9.73;6.57;;;;;;;;;;5064062;28;20051;-82
2023/08/06 04:10:06;;;;;;;8.77;6.57;;;;;;;;;;5038930;28;20036;-82
2023/08/06 04:12:36;;;;;;;8.23;6.55;;;;;;;;;;5054343;28;20040;-82
2023/08/06 04:15:02;;;;;;;9.68;6.45;;;;;;;;;;5054796;28;20511;-81
2023/08/06 04:17:27;;;;;;;10.20;7.47;;;;;;;;;;5044873;28;20039;-81
2023/08/06 04:19:54;;;;;;;8.85;6.70;;;;;;;;;;5040898;28;20044;-81
2023/08/06 04:22:20;;;;;;;9.80;7.47;;;;;;;;;;5041504;28;20031;-81
2023/08/06 04:24:46;;;;;;;10.48;7.15;;;;;;;;;;5039398;28;20848;-82
2023/08/06 04:27:12;;;;;;;10.40;7.40;;;;;;;;;;5042134;28;20115;-81
2023/08/06 04:29:38;;;;;;;9.90;7.22;;;;;;;;;;5059724;28;20036;-81
2023/08/06 04:32:08;;;;;;;9.05;7.40;;;;;;;;;;5045824;28;20042;-81
2023/08/06 04:34:34;;;;;;;9.60;7.32;;;;;;;;;;5048080;28;20041;-82
2023/08/06 04:37:00;;;;;;;9.07;7.18;;;;;;;;;;5044843;28;20515;-81
2023/08/06 04:39:26;;;;;;;8.82;7.20;;;;;;;;;;5047276;28;20028;-81
2023/08/06 04:41:51;;;;;;;8.07;6.63;;;;;;;;;;5054436;28;20430;-81
2023/08/06 04:44:16;;;;;;;9.80;7.18;;;;;;;;;;5047554;28;20115;-81
2023/08/06 04:46:42;;;;;;;9.68;6.78;;;;;;;;;;5038040;28;20109;-81
2023/08/06 04:49:07;;;;;;;10.30;7.45;;;;;;;;;;5044070;28;20035;-81
2023/08/06 04:51:32;;;;;;;10.48;7.05;;;;;;;;;;5037398;28;20578;-81
2023/08/06 04:53:58;;;;;;;9.55;7.30;;;;;;;;;;5045014;28;20047;-81
2023/08/06 04:56:23;;;;;;;8.13;6.40;;;;;;;;;;5054232;28;20047;-81
2023/08/06 04:58:49;;;;;;;10.35;7.60;;;;;;;;;;5046944;28;20042;-81
2023/08/06 05:01:20;;;;;;;14.90;9.50;;;;;;;;;;5044725;28;20047;-81
2023/08/06 05:03:47;;;;;;;10.73;7.60;;;;;;;;;;5037554;28;20098;-81
2023/08/06 05:06:12;;;;;;;10.35;6.70;;;;;;;;;;5045690;28;20047;-81
2023/08/06 05:08:38;;;;;;;13.20;7.47;;;;;;;;;;5042043;28;20031;-81
2023/08/06 05:11:03;;;;;;;9.40;7.00;;;;;;;;;;5046321;28;20106;-81
2023/08/06 05:13:28;;;;;;;10.70;7.00;;;;;;;;;;5059427;28;20085;-81
2023/08/06 05:15:54;;;;;;;15.57;7.53;;;;;;;;;;5039394;28;20045;-81
2023/08/06 05:18:20;;;;;;;11.45;7.18;;;;;;;;;;5047519;28;20380;-82
2023/08/06 05:20:45;;;;;;;11.65;7.03;;;;;;;;;;5029698;28;20032;-81
2023/08/06 05:23:11;;;;;;;7.80;6.30;;;;;;;;;;5050806;28;20032;-81
2023/08/06 05:25:37;;;;;;;10.20;6.53;;;;;;;;;;5050113;28;20107;-82
2023/08/06 05:28:03;;;;;;;9.73;6.38;;;;;;;;;;5044552;28;20111;-81
2023/08/06 05:30:29;;;;;;;9.60;6.50;;;;;;;;;;5045665;28;20124;-81
2023/08/06 05:32:55;;;;;;;10.43;6.30;;;;;;;;;;5036046;28;20575;-81
2023/08/06 05:35:23;;;;;;;11.35;6.15;;;;;;;;;;5061340;28;20119;-81
2023/08/06 05:37:50;;;;;;;8.38;6.65;;;;;;;;;;5044441;28;20389;-81
2023/08/06 05:40:15;;;;;;;7.88;6.32;;;;;;;;;;5048027;28;20038;-81
2023/08/06 05:42:43;;;;;;;9.43;5.75;;;;;;;;;;5050543;28;20422;-81
2023/08/06 05:45:10;;;;;;;6.95;5.10;;;;;;;;;;5050204;28;20063;-81
2023/08/06 05:47:35;;;;;;;9.23;5.65;;;;;;;;;;5031162;28;20105;-81
2023/08/06 05:50:00;;;;;;;8.93;5.72;;;;;;;;;;5043511;28;20520;-81
2023/08/06 05:52:26;;;;;;;7.82;5.35;;;;;;;;;;5038873;28;20032;-81
2023/08/06 05:54:51;;;;;;;8.40;4.90;;;;;;;;;;5051305;28;20039;-81
2023/08/06 05:57:17;;;;;;;7.53;5.53;;;;;;;;;;5049824;28;20166;-80
2023/08/06 05:59:42;;;;;;;8.13;6.13;;;;;;;;;;5034800;28;20068;-81
2023/08/06 06:02:08;;;;;;;8.90;6.18;;;;;;;;;;5046055;28;20040;-80
2023/08/06 06:04:33;;;;;;;8.25;6.05;;;;;;;;;;5045428;28;20037;-81
2023/08/06 06:06:59;;;;;;;7.30;5.47;;;;;;;;;;5057190;28;20036;-81
2023/08/06 06:09:24;;;;;;;9.45;5.90;;;;;;;;;;5044885;28;20380;-81
2023/08/06 06:11:50;;;;;;;6.78;5.85;;;;;;;;;;5046802;28;20522;-81
2023/08/06 06:14:21;;;;;;;8.43;6.05;;;;;;;;;;5036900;28;20032;-81
2023/08/06 06:16:46;;;;;;;7.63;5.63;;;;;;;;;;5048507;28;20089;-81
2023/08/06 06:19:12;;;;;;;7.95;5.78;;;;;;;;;;5048668;28;20048;-81
2023/08/06 06:21:38;;;;;;;8.35;6.03;;;;;;;;;;5065206;28;20085;-81
2023/08/06 06:24:05;;;;;;;7.18;5.95;;;;;;;;;;5049293;28;20041;-81
2023/08/06 06:26:31;;;;;;;7.65;5.55;;;;;;;;;;5055871;28;20036;-81
2023/08/06 06:28:57;;;;;;;9.52;6.10;;;;;;;;;;5046072;28;20526;-81
2023/08/06 06:31:23;;;;;;;6.90;5.40;;;;;;;;;;5042541;28;20028;-81
2023/08/06 06:33:48;;;;;;;6.43;5.18;;;;;;;;;;5039914;28;20297;-81
2023/08/06 06:36:13;;;;;;;7.07;5.35;;;;;;;;;;5064935;28;20101;-81
2023/08/06 06:38:39;;;;;;;8.27;5.55;;;;;;;;;;5056750;28;20040;-81
2023/08/06 06:41:04;;;;;;;6.45;5.47;;;;;;;;;;5035216;28;20032;-81
2023/08/06 06:43:30;;;;;;;9.20;6.00;;;;;;;;;;5036515;28;20143;-81
2023/08/06 06:45:59;;;;;;;7.65;5.90;;;;;;;;;;5030611;28;20056;-81
2023/08/06 06:48:32;;;;;;;7.47;5.75;;;;;;;;;;5065075;28;20507;-81
2023/08/06 06:50:57;;;;;;;6.78;5.50;;;;;;;;;;5031262;28;20064;-81
2023/08/06 06:53:27;;;;;;;6.72;5.22;;;;;;;;;;5031573;28;20589;-81
2023/08/06 06:55:56;;;;;;;6.75;5.45;;;;;;;;;;5064884;28;20557;-81
2023/08/06 06:58:22;;;;;;;7.00;5.55;;;;;;;;;;5055649;28;20028;-81
2023/08/06 07:00:48;;;;;;;8.07;5.50;;;;;;;;;;5042940;28;20433;-81
2023/08/06 07:03:15;;;;;;;8.27;6.07;;;;;;;;;;5047552;28;20522;-81
2023/08/06 07:05:42;;;;;;;;;;;;;;;;;;5041484;28;20043;-80
2023/08/06 07:08:07;;;;;;;6.47;5.00;;;;;;;;;;5043135;28;20765;-80
2023/08/06 07:10:32;;;;;;;10.13;5.40;;;;;;;;;;5043091;28;20066;-81
2023/08/06 07:12:58;;;;;;;8.50;6.45;;;;;;;;;;5054664;28;20071;-81
2023/08/06 07:15:23;;;;;;;8.27;6.43;;;;;;;;;;5042759;28;20064;-81
2023/08/06 07:17:50;;;;;;;8.60;5.93;;;;;;;;;;5058138;28;20041;-81
2023/08/06 07:20:16;;;;;;;7.63;6.07;;;;;;;;;;5057421;28;20063;-81
2023/08/06 07:22:41;;;;;;;8.02;6.22;;;;;;;;;;5056499;28;20079;-80
2023/08/06 07:25:07;;;;;;;6.63;5.40;;;;;;;;;;5046639;28;21125;-80
2023/08/06 07:27:32;;;;;;;8.93;5.40;;;;;;;;;;5041876;28;20116;-81
2023/08/06 07:30:00;;;;;;;6.82;5.40;;;;;;;;;;5038128;28;20071;-81
2023/08/06 07:32:29;;;;;;;7.32;5.43;;;;;;;;;;5040737;28;20067;-81
2023/08/06 07:34:59;;;;;;;6.70;5.32;;;;;;;;;;5038211;28;20042;-81
2023/08/06 07:37:33;;;;;;;6.90;5.70;;;;;;;;;;5047865;28;20038;-81
2023/08/06 07:39:58;;;;;;;8.82;5.90;;;;;;;;;;5044148;28;20063;-82
2023/08/06 07:42:23;;;;;;;8.00;6.30;;;;;;;;;;5041297;28;20148;-82
2023/08/06 07:44:58;;;;;;;7.38;5.82;;;;;;;;;;5043018;28;20032;-82
2023/08/06 07:47:24;;;;;;;7.47;5.85;;;;;;;;;;5046763;28;20426;-82
2023/08/06 07:49:49;;;;;;;8.05;6.03;;;;;;;;;;5043835;28;20036;-81
2023/08/06 07:52:14;;;;;;;8.77;6.22;;;;;;;;;;5054921;28;20024;-82
2023/08/06 07:54:40;;;;;;;10.07;7.18;;;;;;;;;;5058961;28;20085;-82
2023/08/06 07:57:06;;;;;;;7.50;5.72;;;;;;;;;;5044873;28;20036;-82
2023/08/06 07:59:31;;;;;;;8.05;6.22;;;;;;;;;;5046423;28;20052;-81
2023/08/06 08:02:07;;;;;;;7.80;6.68;;;;;;;;;;5063851;28;20395;-81
2023/08/06 08:04:33;;;;;;;8.05;6.45;;;;;;;;;;5060700;28;20033;-82
2023/08/06 08:06:58;;;;;;;7.78;6.60;;;;;;;;;;5032046;28;20045;-81
2023/08/06 08:09:26;;;;;;;7.55;6.47;;;;;;;;;;5046083;28;20052;-81
2023/08/06 08:11:52;;;;;;;7.53;6.15;;;;;;;;;;5041292;28;20487;-81
2023/08/06 08:14:17;;;;;;;7.30;6.20;;;;;;;;;;5034186;28;20039;-82
2023/08/06 08:16:49;;;;;;;8.55;6.55;;;;;;;;;;5030513;28;20042;-82
2023/08/06 08:19:14;;;;;;;7.68;6.25;;;;;;;;;;5034469;28;20040;-81
2023/08/06 08:21:40;;;;;;;7.80;6.18;;;;;;;;;;5030726;28;20090;-82
2023/08/06 08:24:10;;;;;;;7.70;6.63;;;;;;;;;;5039550;28;20039;-82
2023/08/06 08:26:35;;;;;;;8.68;6.47;;;;;;;;;;5053500;28;20524;-81
2023/08/06 08:29:04;;;;;;;6.97;6.28;;;;;;;;;;5031238;28;20032;-81
2023/08/06 08:31:29;;;;;;;8.27;6.50;;;;;;;;;;5041434;28;20075;-81
2023/08/06 08:33:55;;;;;;;7.53;6.25;;;;;;;;;;5055783;28;20573;-81
2023/08/06 08:36:20;;;;;;;8.00;6.35;;;;;;;;;;5041289;28;20396;-81
2023/08/06 08:38:46;;;;;;;8.40;6.70;;;;;;;;;;5039789;28;20052;-82
2023/08/06 08:41:14;;;;;;;8.45;6.47;;;;;;;;;;5068267;28;20420;-82
2023/08/06 08:43:40;;;;;;;8.43;6.90;;;;;;;;;;5037725;28;20051;-81
2023/08/06 08:46:07;;;;;;;8.05;6.70;;;;;;;;;;5053582;28;20035;-82
2023/08/06 08:48:32;;;;;;;8.43;6.97;;;;;;;;;;5045494;28;20107;-81
2023/08/06 08:50:58;;;;;;;8.25;6.93;;;;;;;;;;5051787;28;20135;-82
2023/08/06 08:53:23;;;;;;;8.93;7.43;;;;;;;;;;5057998;28;20039;-81
2023/08/06 08:55:49;;;;;;;9.35;7.10;;;;;;;;;;5041930;28;20195;-81
2023/08/06 08:58:15;;;;;;;8.07;6.95;;;;;;;;;;5055074;28;20063;-82
2023/08/06 09:00:59;;;;;;;;;;;;;;;;;;;;;
2023/08/06 09:03:25;;;;;;;8.30;7.03;;;;;;;;;;5046281;28;20029;-82
2023/08/06 09:05:53;;;;;;;9.85;7.43;;;;;;;;;;5040380;28;20514;-81
2023/08/06 09:08:22;;;;;;;7.78;6.82;;;;;;;;;;5052381;28;20050;-82
2023/08/06 09:10:52;;;;;;;8.18;6.78;;;;;;;;;;5044625;28;20141;-81
2023/08/06 09:13:17;;;;;;;9.70;7.35;;;;;;;;;;5047572;28;20035;-82
2023/08/06 09:15:44;;;;;;;7.70;6.47;;;;;;;;;;5044831;28;20397;-81
2023/08/06 09:18:11;;;;;;;7.50;6.63;;;;;;;;;;5054207;28;20372;-81
2023/08/06 09:20:38;;;;;;;8.43;6.47;;;;;;;;;;5054367;28;20052;-82
2023/08/06 09:23:10;;;;;;;7.72;6.47;;;;;;;;;;5045435;28;20036;-82
2023/08/06 09:25:39;;;;;;;8.00;6.80;;;;;;;;;;5053583;28;20102;-82
2023/08/06 09:28:04;;;;;;;8.32;6.80;;;;;;;;;;5041524;28;20166;-81
2023/08/06 09:30:31;;;;;;;8.65;7.15;;;;;;;;;;5052490;28;20115;-81
2023/08/06 09:32:57;;;;;;;8.23;6.50;;;;;;;;;;5040121;28;20617;-82
2023/08/06 09:35:22;;;;;;;8.55;7.15;;;;;;;;;;5045960;28;20112;-81
2023/08/06 09:37:48;;;;;;;8.68;6.68;;;;;;;;;;5053851;28;20139;-82
2023/08/06 09:40:28;;;;;;;7.10;6.10;;;;;;;;;;5045784;28;20479;-81
2023/08/06 09:42:54;;;;;;;8.93;6.40;;;;;;;;;;5043698;28;20036;-81
2023/08/06 09:45:21;;;;;;;9.55;6.75;;;;;;;;;;5036141;28;20498;-82
2023/08/06 09:47:47;;;;;;;7.13;6.40;;;;;;;;;;5043722;28;20036;-81
2023/08/06 09:50:17;;;;;;;7.25;6.18;;;;;;;;;;5035834;28;20098;-81
2023/08/06 09:52:42;;;;;;;8.48;7.07;;;;;;;;;;5041180;28;20028;-82
2023/08/06 09:55:08;;;;;;;8.30;6.72;;;;;;;;;;5043629;28;20136;-82
2023/08/06 09:57:34;;;;;;;8.73;6.90;;;;;;;;;;5045977;28;20036;-81
2023/08/06 09:59:59;;;;;;;7.18;6.38;;;;;;;;;;5040565;28;20094;-82
2023/08/06 10:02:26;;;;;;;7.15;6.10;;;;;;;;;;5049581;28;20040;-82
2023/08/06 10:05:04;;;;;;;9.07;7.10;;;;;;;;;;5057178;28;20924;-82
2023/08/06 10:07:30;;;;;;;8.38;6.95;;;;;;;;;;5050432;28;20263;-82
2023/08/06 10:09:56;;;;;;;8.23;6.60;;;;;;;;;;5044056;28;20089;-82
2023/08/06 10:12:22;;;;;;;8.00;6.68;;;;;;;;;;5045653;28;20641;-81
2023/08/06 10:14:49;;;;;;;8.13;6.13;;;;;;;;;;5040935;28;20460;-81
2023/08/06 10:17:14;;;;;;;9.20;7.10;;;;;;;;;;5043794;28;20034;-82
2023/08/06 10:19:40;;;;;;;9.50;6.32;;;;;;;;;;5073140;28;20122;-82
2023/08/06 10:22:13;;;;;;;7.78;6.55;;;;;;;;;;5049599;28;20048;-82
2023/08/06 10:24:57;;;;;;;8.20;6.85;;;;;;;;;;5039230;28;20074;-82
2023/08/06 10:27:30;;;;;;;7.75;6.50;;;;;;;;;;5045108;28;20483;-82
2023/08/06 10:30:31;;;;;;;7.90;6.97;;;;;;;;;;5040269;28;20495;-82
2023/08/06 10:33:00;;;;;;;8.55;7.10;;;;;;;;;;5061236;28;20438;-82
2023/08/06 10:35:34;;;;;;;8.02;7.22;;;;;;;;;;5039480;28;20032;-82
2023/08/06 10:38:10;;;;;;;8.75;7.00;;;;;;;;;;5066124;28;20070;-81
2023/08/06 10:40:40;;;;;;;9.30;7.25;;;;;;;;;;5046037;28;20056;-82
2023/08/06 10:43:07;;;;;;;9.25;7.65;;;;;;;;;;5061052;28;20489;-82
2023/08/06 10:45:37;;;;;;;10.48;7.68;;;;;;;;;;5065769;28;20148;-82
2023/08/06 10:48:03;;;;;;;9.07;6.85;;;;;;;;;;5059263;28;20029;-82
2023/08/06 10:50:31;;;;;;;9.20;7.25;;;;;;;;;;5044196;28;22410;-82
2023/08/06 10:53:00;;;;;;;7.88;6.43;;;;;;;;;;5061127;28;20035;-82
2023/08/06 10:55:27;;;;;;;8.77;7.35;;;;;;;;;;5035197;28;20487;-82
2023/08/06 10:57:53;;;;;;;8.85;7.45;;;;;;;;;;5044196;28;20090;-82
2023/08/06 11:00:18;;;;;;;9.20;7.75;;;;;;;;;;5039951;28;20028;-81
2023/08/06 11:02:44;;;;;;;9.27;7.90;;;;;;;;;;5041752;28;20120;-82
2023/08/06 11:05:11;;;;;;;9.48;8.45;;;;;;;;;;5048149;28;20040;-82
2023/08/06 11:07:39;;;;;;;10.63;8.20;;;;;;;;;;5055413;28;20036;-82
2023/08/06 11:10:07;;;;;;;8.70;7.80;;;;;;;;;;5044020;28;20278;-82
2023/08/06 11:12:33;;;;;;;9.20;7.55;;;;;;;;;;5047539;28;20036;-81
2023/08/06 11:15:01;;;;;;;8.63;7.65;;;;;;;;;;5037498;28;20152;-82
2023/08/06 11:17:28;;;;;;;9.70;8.27;;;;;;;;;;5045756;28;20433;-82
2023/08/06 11:19:54;;;;;;;9.80;7.40;;;;;;;;;;5047130;28;20522;-82
2023/08/06 11:22:23;;;;;;;9.75;8.07;;;;;;;;;;5047441;28;20111;-82
2023/08/06 11:24:49;;;;;;;9.80;8.15;;;;;;;;;;5043862;28;20046;-81
2023/08/06 11:27:15;;;;;;;9.02;8.10;;;;;;;;;;5056386;28;20123;-82
2023/08/06 11:29:41;;;;;;;8.73;7.80;;;;;;;;;;5039154;28;20127;-81
2023/08/06 11:32:10;;;;;;;9.02;7.80;;;;;;;;;;5049089;28;20025;-81
2023/08/06 11:34:36;;;;;;;8.85;7.45;;;;;;;;;;5037641;28;20066;-81
2023/08/06 11:37:05;;;;;;;8.60;7.40;;;;;;;;;;5048072;28;20024;-81
2023/08/06 11:39:38;;;;;;;9.15;7.22;;;;;;;;;;5052826;28;20086;-81
2023/08/06 11:42:04;;;;;;;8.30;7.15;;;;;;;;;;5043375;28;20040;-81
2023/08/06 11:44:44;;;;;;;9.63;7.35;;;;;;;;;;5071124;28;20044;-81
2023/08/06 11:47:15;;;;;;;10.10;7.78;;;;;;;;;;5047676;28;20040;-81
2023/08/06 11:49:46;;;;;;;9.05;8.15;;;;;;;;;;5061610;28;20040;-81
2023/08/06 11:52:23;;;;;;;8.38;7.47;;;;;;;;;;5059340;28;20067;-82
2023/08/06 11:55:08;;;;;;;9.90;7.90;;;;;;;;;;5022059;28;20032;-81
2023/08/06 11:57:37;;;;;;;8.35;7.15;;;;;;;;;;5043934;28;20505;-82
2023/08/06 12:00:08;;;;;;;7.80;6.93;;;;;;;;;;5042972;28;20695;-82
2023/08/06 12:02:52;;;;;;;7.07;6.38;;;;;;;;;;5030802;28;20418;-81
2023/08/06 12:05:20;;;;;;;9.60;7.10;;;;;;;;;;5029366;28;20087;-81
2023/08/06 12:07:58;;;;;;;8.82;7.45;;;;;;;;;;5047676;28;20050;-81
2023/08/06 12:10:25;;;;;;;10.80;7.88;;;;;;;;;;5054954;28;20036;-81
2023/08/06 12:12:50;;;;;;;12.07;7.47;;;;;;;;;;5046500;28;20040;-81
2023/08/06 12:15:16;;;;;;;8.65;7.65;;;;;;;;;;5040724;28;20029;-81
2023/08/06 12:17:42;;;;;;;9.43;6.85;;;;;;;;;;5031117;28;20495;-81
2023/08/06 12:20:09;;;;;;;8.70;7.40;;;;;;;;;;5064096;28;20032;-81
2023/08/06 12:22:35;;;;;;;8.40;7.05;;;;;;;;;;5046297;28;20479;-82
2023/08/06 12:25:12;;;;;;;8.95;6.57;;;;;;;;;;5041595;28;20063;-81
2023/08/06 12:27:39;;;;;;;9.63;6.95;;;;;;;;;;5040396;28;20036;-81
2023/08/06 12:30:05;;;;;;;9.05;7.50;;;;;;;;;;5036692;28;20081;-81
2023/08/06 12:32:32;;;;;;;9.05;7.40;;;;;;;;;;5052354;28;20040;-81
2023/08/06 12:34:57;;;;;;;9.20;6.95;;;;;;;;;;5045832;28;20048;-81
2023/08/06 12:37:24;;;;;;;9.63;6.65;;;;;;;;;;5039595;28;20036;-81
2023/08/06 12:39:49;;;;;;;7.63;6.43;;;;;;;;;;5041457;28;20036;-82
2023/08/06 12:42:17;;;;;;;8.23;6.53;;;;;;;;;;5041682;28;20055;-81
2023/08/06 12:44:43;;;;;;;10.18;7.05;;;;;;;;;;5040691;28;20072;-80
2023/08/06 12:47:08;;;;;;;10.05;7.35;;;;;;;;;;5053305;28;20571;-81
2023/08/06 12:49:34;;;;;;;8.95;7.65;;;;;;;;;;5041042;28;20032;-81
2023/08/06 12:52:00;;;;;;;10.65;8.88;;;;;;;;;;5054017;28;20043;-80
2023/08/06 12:54:26;;;;;;;9.80;7.93;;;;;;;;;;5047090;28;20115;-81
2023/08/06 12:56:51;;;;;;;8.90;7.30;;;;;;;;;;5044957;28;20040;-80
2023/08/06 12:59:20;;;;;;;9.25;7.00;;;;;;;;;;5044981;28;20039;-80
2023/08/06 13:01:46;;;;;;;10.38;7.20;;;;;;;;;;5045163;28;20036;-80
2023/08/06 13:04:12;;;;;;;10.10;6.53;;;;;;;;;;5046190;28;20036;-80
2023/08/06 13:07:19;;;;;;;8.60;5.85;;;;;;;;;;5041701;27;20781;-82
2023/08/06 13:09:44;;;;;;;8.57;5.30;;;;;;;;;;5037440;28;20033;-80
2023/08/06 13:12:12;;;;;;;7.60;5.03;;;;;;;;;;5027890;28;20044;-79
2023/08/06 13:14:38;;;;;;;8.30;5.10;;;;;;;;;;5049230;28;20057;-80
2023/08/06 13:17:06;;;;;;;7.85;4.75;;;;;;;;;;5026653;28;20178;-80
2023/08/06 13:19:31;;;;;;;8.10;5.00;;;;;;;;;;4999917;28;20401;-80
2023/08/06 13:22:03;;;;;;;9.82;5.40;;;;;;;;;;5011603;28;20033;-80
2023/08/06 13:24:29;;;;;;;6.68;5.05;;;;;;;;;;5028874;28;20041;-80
2023/08/06 13:26:54;;;;;;;6.97;4.95;;;;;;;;;;5015552;28;20045;-80
2023/08/06 13:29:20;;;;;;;7.35;5.40;;;;;;;;;;5021489;28;20111;-81
2023/08/06 13:31:45;;;;;;;9.80;5.78;;;;;;;;;;5014707;28;20072;-80
2023/08/06 13:34:11;;;;;;;8.35;5.88;;;;;;;;;;5022089;28;20065;-80
2023/08/06 13:36:36;;;;;;;8.50;5.43;;;;;;;;;;5020580;28;20033;-81
2023/08/06 13:39:03;;;;;;;9.57;5.75;;;;;;;;;;5016222;28;20464;-81
2023/08/06 13:41:28;;;;;;;11.77;5.90;;;;;;;;;;5014584;28;20525;-80
2023/08/06 13:43:54;;;;;;;8.48;5.75;;;;;;;;;;5004303;28;20284;-81
2023/08/06 13:46:22;;;;;;;7.95;5.45;;;;;;;;;;5025872;28;20033;-81
2023/08/06 13:48:51;;;;;;;8.98;5.97;;;;;;;;;;5022209;28;20115;-81
2023/08/06 13:51:17;;;;;;;13.05;7.18;;;;;;;;;;5029408;28;20392;-81
2023/08/06 13:53:43;;;;;;;11.55;7.10;;;;;;;;;;5016511;28;20034;-81
2023/08/06 13:56:10;;;;;;;9.93;6.50;;;;;;;;;;5014327;28;20544;-80
2023/08/06 13:58:35;;;;;;;9.23;5.97;;;;;;;;;;5012233;28;20768;-80
2023/08/06 14:01:03;;;;;;;8.35;6.20;;;;;;;;;;5015272;28;20048;-81
2023/08/06 14:03:29;;;;;;;9.85;6.40;;;;;;;;;;5018548;28;20485;-80
2023/08/06 14:05:56;;;;;;;8.77;6.68;;;;;;;;;;4999562;28;20042;-81
2023/08/06 14:08:23;;;;;;;;;;;;;;;;;;5007266;28;20493;-82
2023/08/06 14:10:48;;;;;;;10.55;7.15;;;;;;;;;;4992415;28;20384;-81
2023/08/06 14:13:14;;;;;;;11.15;7.32;;;;;;;;;;5009391;28;20111;-80
2023/08/06 14:15:40;;;;;;;13.18;8.05;;;;;;;;;;5006486;28;20030;-81
2023/08/06 14:18:06;;;;;;;11.48;7.63;;;;;;;;;;5003556;28;20448;-81
2023/08/06 14:20:34;;;;;;;11.68;8.00;;;;;;;;;;5015756;28;20038;-81
2023/08/06 14:23:00;;;;;;;10.52;8.40;;;;;;;;;;4998790;28;20041;-82
2023/08/06 14:25:25;;;;;;;10.32;8.05;;;;;;;;;;4999216;28;20034;-81
2023/08/06 14:27:50;;;;;;;11.82;8.60;;;;;;;;;;4989581;28;20082;-81
2023/08/06 14:30:16;;;;;;;13.73;8.25;;;;;;;;;;4964032;28;20119;-81
2023/08/06 14:32:41;;;;;;;10.57;8.48;;;;;;;;;;5012025;28;20034;-81
2023/08/06 14:35:07;;;;;;;11.95;8.32;;;;;;;;;;4981586;28;20034;-81
2023/08/06 14:37:35;;;;;;;11.63;7.93;;;;;;;;;;4996254;28;20042;-81
2023/08/06 14:40:01;;;;;;;10.82;7.18;;;;;;;;;;4997786;28;20256;-81
2023/08/06 14:42:26;;;;;;;9.13;7.05;;;;;;;;;;5011638;28;20030;-82